createdAt,value
2023-04-01T00:01:14.522Z,9.57
2023-04-01T00:03:41.936Z,8.13
2023-04-01T00:06:15.595Z,9.10
2023-04-01T00:08:43.213Z,8.20
2023-04-01T00:11:10.902Z,9.75
2023-04-01T00:13:38.226Z,10.50
2023-04-01T00:16:17.671Z,9.38
2023-04-01T00:18:48.671Z,9.85
2023-04-01T00:21:16.682Z,9.30
2023-04-01T00:23:44.299Z,4.20
2023-04-01T00:26:12.484Z,4.10
2023-04-01T00:28:41.357Z,5.15
2023-04-01T00:31:10.691Z,6.00
2023-04-01T00:36:16.747Z,4.10
2023-04-01T00:38:45.106Z,4.20
2023-04-01T00:41:15.444Z,3.35
2023-04-01T00:43:46.192Z,6.15
2023-04-01T00:46:13.833Z,6.72
2023-04-01T00:48:51.073Z,6.13
2023-04-01T00:51:27.339Z,8.05
2023-04-01T00:53:58.442Z,6.35
2023-04-01T00:56:34.010Z,5.30
2023-04-01T00:59:14.975Z,5.07
2023-04-01T01:01:42.503Z,6.35
2023-04-01T01:04:26.107Z,4.57
2023-04-01T01:07:26.678Z,3.80
2023-04-01T01:10:21.221Z,3.22
2023-04-01T01:13:14.854Z,4.20
2023-04-01T01:16:12.622Z,4.60
2023-04-01T01:18:44.228Z,3.90
2023-04-01T01:22:03.868Z,3.10
2023-04-01T01:24:55.605Z,3.95
2023-04-01T01:27:23.613Z,4.00
2023-04-01T01:30:31.877Z,3.20
2023-04-01T01:33:21.346Z,4.33
2023-04-01T01:35:57.046Z,3.80
2023-04-01T01:38:32.838Z,3.63
2023-04-01T01:41:05.815Z,3.35
2023-04-01T01:43:44.567Z,3.25
2023-04-01T01:46:20.359Z,3.40
2023-04-01T01:48:49.909Z,4.18
2023-04-01T01:51:20.643Z,3.97
2023-04-01T01:53:47.992Z,3.83
2023-04-01T01:56:22.076Z,4.13
2023-04-01T01:58:54.866Z,4.95
2023-04-01T02:01:30.965Z,3.55
2023-04-01T02:04:04.704Z,4.10
2023-04-01T02:06:37.500Z,4.50
2023-04-01T02:09:09.040Z,4.63
2023-04-01T02:11:57.826Z,4.32
2023-04-01T02:14:35.441Z,3.90
2023-04-01T02:17:15.169Z,3.25
2023-04-01T02:20:09.653Z,4.27
2023-04-01T02:22:46.946Z,4.00
2023-04-01T02:25:35.012Z,3.70
2023-04-01T02:28:06.647Z,3.88
2023-04-01T02:30:38.601Z,4.32
2023-04-01T02:33:07.165Z,3.70
2023-04-01T02:35:37.539Z,4.35
2023-04-01T02:38:06.657Z,4.28
2023-04-01T02:40:51.309Z,2.97
2023-04-01T02:43:20.179Z,3.65
2023-04-01T02:45:47.451Z,4.00
2023-04-01T02:48:14.679Z,3.58
2023-04-01T02:50:42.036Z,3.47
2023-04-01T02:53:09.628Z,3.40
2023-04-01T02:55:37.114Z,3.35
2023-04-01T02:58:04.784Z,3.13
2023-04-01T03:00:32.618Z,3.00
2023-04-01T03:03:00.407Z,2.95
2023-04-01T03:05:27.737Z,2.63
2023-04-01T03:07:56.353Z,3.30
2023-04-01T03:10:24.237Z,3.67
2023-04-01T03:12:51.430Z,3.15
2023-04-01T03:15:18.769Z,3.95
2023-04-01T03:17:47.199Z,3.00
2023-04-01T03:20:15.406Z,3.08
2023-04-01T03:22:43.130Z,2.85
2023-04-01T03:25:11.347Z,4.10
2023-04-01T03:27:39.230Z,3.25
2023-04-01T03:30:09.980Z,3.40
2023-04-01T03:32:45.197Z,3.13
2023-04-01T03:35:12.743Z,4.40
2023-04-01T03:37:40.522Z,3.88
2023-04-01T03:40:08.433Z,3.95
2023-04-01T03:42:35.837Z,5.60
2023-04-01T03:45:05.121Z,6.55
2023-04-01T03:47:32.538Z,5.65
2023-04-01T03:50:00.533Z,4.25
2023-04-01T03:52:27.932Z,4.65
2023-04-01T03:54:55.096Z,4.13
2023-04-01T03:57:23.345Z,4.03
2023-04-01T03:59:50.877Z,3.33
2023-04-01T04:02:18.539Z,3.50
2023-04-01T04:04:46.934Z,2.97
2023-04-01T04:07:14.390Z,3.55
2023-04-01T04:10:00.256Z,2.88
2023-04-01T04:12:27.536Z,2.85
2023-04-01T04:14:55.354Z,3.35
2023-04-01T04:17:23.304Z,3.22
2023-04-01T04:19:50.902Z,4.28
2023-04-01T04:22:18.249Z,2.90
2023-04-01T04:24:45.805Z,2.33
2023-04-01T04:27:14.156Z,2.97
2023-04-01T04:29:56.146Z,2.90
2023-04-01T04:32:23.510Z,2.38
2023-04-01T04:34:50.813Z,3.55
2023-04-01T04:37:19.815Z,2.85
2023-04-01T04:39:47.096Z,3.05
2023-04-01T04:42:14.589Z,2.78
2023-04-01T04:44:43.209Z,3.83
2023-04-01T04:47:11.720Z,2.95
2023-04-01T04:49:39.233Z,2.42
2023-04-01T04:52:09.902Z,3.17
2023-04-01T04:54:37.157Z,3.20
2023-04-01T04:57:05.635Z,3.00
2023-04-01T04:59:38.912Z,2.38
2023-04-01T05:02:13.476Z,2.97
2023-04-01T05:04:40.880Z,2.90
2023-04-01T05:07:11.446Z,3.05
2023-04-01T05:09:38.942Z,3.65
2023-04-01T05:12:06.507Z,3.00
2023-04-01T05:14:51.978Z,2.78
2023-04-01T05:17:19.361Z,2.35
2023-04-01T05:19:46.578Z,3.35
2023-04-01T05:22:13.998Z,2.85
2023-04-01T05:24:41.915Z,1.60
2023-04-01T05:27:09.382Z,2.47
2023-04-01T05:29:40.146Z,2.95
2023-04-01T05:32:11.231Z,3.08
2023-04-01T05:34:38.795Z,2.88
2023-04-01T05:37:07.676Z,2.50
2023-04-01T05:39:39.253Z,2.33
2023-04-01T05:42:08.165Z,3.58
2023-04-01T05:44:36.610Z,3.33
2023-04-01T05:47:05.233Z,2.90
2023-04-01T05:49:34.227Z,2.58
2023-04-01T05:52:02.985Z,2.72
2023-04-01T05:54:31.304Z,2.67
2023-04-01T05:56:58.529Z,2.70
2023-04-01T05:59:25.907Z,3.22
2023-04-01T06:01:53.725Z,2.85
2023-04-01T06:04:21.371Z,3.00
2023-04-01T06:06:49.009Z,3.10
2023-04-01T06:09:21.723Z,3.78
2023-04-01T06:12:11.048Z,3.60
2023-04-01T06:15:10.851Z,2.53
2023-04-01T06:18:20.139Z,3.28
2023-04-01T06:21:23.256Z,3.60
2023-04-01T06:24:45.261Z,3.75
2023-04-01T06:28:03.323Z,2.72
2023-04-01T06:31:14.355Z,3.88
2023-04-01T06:34:02.517Z,3.78
2023-04-01T06:37:52.939Z,4.35
2023-04-01T06:41:00.320Z,4.82
2023-04-01T06:47:17.277Z,6.75
2023-04-01T06:50:54.861Z,5.88
2023-04-01T06:54:20.608Z,7.25
2023-04-01T06:57:29.539Z,8.35
2023-04-01T07:00:04.091Z,6.15
2023-04-01T07:02:54.131Z,7.78
2023-04-01T07:05:23.390Z,6.43
2023-04-01T07:07:56.290Z,5.85
2023-04-01T07:10:54.290Z,7.18
2023-04-01T07:14:22.201Z,6.95
2023-04-01T07:17:01.409Z,7.97
2023-04-01T07:19:59.142Z,7.90
2023-04-01T07:22:42.080Z,7.18
2023-04-01T07:25:31.080Z,5.20
2023-04-01T07:28:18.506Z,4.90
2023-04-01T07:31:25.805Z,4.25
2023-04-01T07:34:16.897Z,3.53
2023-04-01T07:37:10.955Z,4.07
2023-04-01T07:39:54.117Z,4.13
2023-04-01T07:43:01.692Z,4.35
2023-04-01T07:45:36.967Z,5.65
2023-04-01T07:48:25.769Z,6.57
2023-04-01T07:51:32.347Z,7.47
2023-04-01T07:55:12.058Z,6.43
2023-04-01T07:57:57.882Z,6.10
2023-04-01T08:00:40.355Z,4.45
2023-04-01T08:03:36.930Z,4.28
2023-04-01T08:09:07.469Z,5.20
2023-04-01T08:11:46.976Z,4.32
2023-04-01T08:14:45.041Z,4.18
2023-04-01T08:18:21.582Z,4.35
2023-04-01T08:21:48.365Z,3.50
2023-04-01T08:24:48.067Z,4.25
2023-04-01T08:27:46.005Z,3.63
2023-04-01T08:30:34.552Z,4.05
2023-04-01T08:33:30.596Z,5.47
2023-04-01T08:36:21.926Z,3.72
2023-04-01T08:39:07.729Z,2.85
2023-04-01T08:42:21.844Z,7.05
2023-04-01T08:45:47.357Z,5.32
2023-04-01T08:48:30.332Z,4.10
2023-04-01T08:52:00.457Z,3.97
2023-04-01T08:54:55.594Z,2.92
2023-04-01T08:58:04.655Z,3.15
2023-04-01T09:00:56.658Z,2.60
2023-04-01T09:04:05.637Z,4.07
2023-04-01T09:07:29.679Z,2.55
2023-04-01T09:10:40.957Z,3.13
2023-04-01T09:14:06.416Z,1.57
2023-04-01T09:17:22.750Z,2.40
2023-04-01T09:20:08.024Z,1.60
2023-04-01T09:23:42.102Z,1.65
2023-04-01T09:26:46.828Z,2.05
2023-04-01T09:30:03.571Z,1.40
2023-04-01T09:33:28.225Z,2.17
2023-04-01T09:36:05.533Z,1.70
2023-04-01T09:38:47.812Z,1.52
2023-04-01T09:41:32.981Z,1.63
2023-04-01T09:45:02.769Z,3.25
2023-04-01T09:47:35.673Z,1.55
2023-04-01T09:50:39.852Z,1.98
2023-04-01T09:53:55.873Z,1.80
2023-04-01T09:56:41.186Z,2.22
2023-04-01T09:59:39.135Z,1.20
2023-04-01T10:03:11.099Z,1.20
2023-04-01T10:06:29.997Z,36.38
2023-04-01T10:09:28.067Z,2.50
2023-04-01T10:12:38.356Z,3.42
2023-04-01T10:16:04.807Z,1.48
2023-04-01T10:19:40.197Z,2.28
2023-04-01T10:22:32.305Z,2.00
2023-04-01T10:25:16.165Z,1.58
2023-04-01T10:28:06.691Z,1.63
2023-04-01T10:31:44.420Z,1.73
2023-04-01T10:34:42.678Z,1.65
2023-04-01T10:37:47.296Z,1.85
2023-04-01T10:40:54.366Z,2.22
2023-04-01T10:43:50.444Z,2.72
2023-04-01T10:47:06.944Z,2.08
2023-04-01T10:50:11.540Z,2.30
2023-04-01T10:53:09.747Z,2.03
2023-04-01T10:56:48.775Z,2.20
2023-04-01T11:00:15.775Z,2.05
2023-04-01T11:03:58.885Z,1.92
2023-04-01T11:07:16.862Z,1.70
2023-04-01T11:10:50.705Z,1.95
2023-04-01T11:13:39.221Z,2.10
2023-04-01T11:16:25.294Z,2.72
2023-04-01T11:19:25.310Z,2.13
2023-04-01T11:22:25.341Z,1.88
2023-04-01T11:25:35.435Z,1.50
2023-04-01T11:28:54.849Z,2.00
2023-04-01T11:31:43.929Z,1.40
2023-04-01T11:34:49.962Z,1.75
2023-04-01T11:37:52.306Z,1.80
2023-04-01T11:41:18.820Z,1.90
2023-04-01T11:44:21.080Z,1.55
2023-04-01T11:47:35.637Z,2.28
2023-04-01T11:50:26.096Z,2.03
2023-04-01T11:53:13.356Z,2.20
2023-04-01T11:56:15.560Z,2.08
2023-04-01T11:59:36.265Z,1.83
2023-04-01T12:02:24.922Z,2.25
2023-04-01T12:05:24.516Z,2.20
2023-04-01T12:08:27.109Z,2.25
2023-04-01T12:11:05.391Z,1.95
2023-04-01T12:14:05.755Z,3.05
2023-04-01T12:17:17.001Z,2.50
2023-04-01T12:20:27.511Z,1.95
2023-04-01T12:23:34.315Z,2.28
2023-04-01T12:26:44.296Z,2.45
2023-04-01T12:29:54.012Z,4.00
2023-04-01T12:32:55.255Z,2.38
2023-04-01T12:35:53.688Z,2.08
2023-04-01T12:38:55.370Z,2.80
2023-04-01T12:41:37.541Z,2.42
2023-04-01T12:44:13.911Z,3.20
2023-04-01T12:47:17.421Z,2.42
2023-04-01T12:49:53.420Z,2.22
2023-04-01T12:53:03.384Z,3.75
2023-04-01T12:55:38.703Z,2.60
2023-04-01T12:58:33.183Z,2.58
2023-04-01T13:01:22.906Z,3.28
2023-04-01T13:04:14.622Z,2.80
2023-04-01T13:07:22.385Z,2.53
2023-04-01T13:10:17.198Z,3.05
2023-04-01T13:13:36.229Z,3.38
2023-04-01T13:16:26.816Z,3.85
2023-04-01T13:19:29.362Z,2.67
2023-04-01T13:22:17.791Z,3.50
2023-04-01T13:25:27.479Z,2.88
2023-04-01T13:28:20.376Z,3.25
2023-04-01T13:31:23.401Z,3.72
2023-04-01T13:34:21.747Z,3.90
2023-04-01T13:37:40.716Z,3.13
2023-04-01T13:40:35.962Z,4.47
2023-04-01T13:43:21.141Z,3.45
2023-04-01T13:45:58.885Z,2.70
2023-04-01T13:49:26.262Z,2.70
2023-04-01T13:52:19.023Z,3.25
2023-04-01T13:55:07.414Z,2.83
2023-04-01T13:58:13.809Z,2.22
2023-04-01T14:00:55.221Z,2.47
2023-04-01T14:03:37.523Z,2.30
2023-04-01T14:06:32.329Z,2.05
2023-04-01T14:09:33.819Z,2.03
2023-04-01T14:12:26.111Z,2.58
2023-04-01T14:15:21.778Z,1.90
2023-04-01T14:18:20.570Z,2.47
2023-04-01T14:21:03.140Z,2.53
2023-04-01T14:24:03.544Z,3.38
2023-04-01T14:26:41.472Z,2.60
2023-04-01T14:29:36.439Z,3.22
2023-04-01T14:32:19.249Z,2.63
2023-04-01T14:35:13.328Z,3.20
2023-04-01T14:38:25.204Z,3.78
2023-04-01T14:41:49.999Z,5.22
2023-04-01T14:44:30.653Z,6.13
2023-04-01T14:47:22.615Z,5.72
2023-04-01T14:50:03.743Z,3.53
2023-04-01T14:52:39.966Z,4.63
2023-04-01T14:55:44.042Z,5.00
2023-04-01T14:58:16.597Z,5.35
2023-04-01T15:01:26.609Z,6.05
2023-04-01T15:03:56.795Z,6.40
2023-04-01T15:06:54.379Z,8.23
2023-04-01T15:09:44.779Z,10.80
2023-04-01T15:12:54.837Z,9.55
2023-04-01T15:15:37.034Z,8.20
2023-04-01T15:18:19.396Z,6.05
2023-04-01T15:20:55.252Z,6.78
2023-04-01T15:23:56.698Z,6.80
2023-04-01T15:27:14.786Z,6.07
2023-04-01T15:29:53.161Z,5.75
2023-04-01T15:32:39.222Z,5.70
2023-04-01T15:35:28.321Z,3.28
2023-04-01T15:38:11.992Z,3.70
2023-04-01T15:40:54.954Z,5.47
2023-04-01T15:43:54.376Z,3.25
2023-04-01T15:46:49.239Z,3.17
2023-04-01T15:49:34.588Z,2.83
2023-04-01T15:52:42.608Z,2.35
2023-04-01T15:55:31.419Z,2.40
2023-04-01T15:58:41.793Z,3.47
2023-04-01T16:01:45.756Z,3.22
2023-04-01T16:04:56.054Z,3.45
2023-04-01T16:08:18.778Z,2.60
2023-04-01T16:10:59.648Z,2.85
2023-04-01T16:14:16.972Z,2.47
2023-04-01T16:16:53.129Z,2.10
2023-04-01T16:19:39.474Z,2.45
2023-04-01T16:22:22.144Z,3.10
2023-04-01T16:25:12.599Z,3.90
2023-04-01T16:28:04.389Z,3.85
2023-04-01T16:30:46.266Z,3.20
2023-04-01T16:33:41.371Z,5.57
2023-04-01T16:36:31.298Z,8.35
2023-04-01T16:39:57.351Z,4.20
2023-04-01T16:43:09.766Z,6.07
2023-04-01T16:45:48.111Z,5.25
2023-04-01T16:49:05.091Z,8.00
2023-04-01T16:52:03.131Z,5.75
2023-04-01T16:54:51.875Z,5.82
2023-04-01T16:57:47.032Z,4.85
2023-04-01T17:00:37.625Z,3.55
2023-04-01T17:03:07.905Z,4.55
2023-04-01T17:06:32.042Z,4.45
2023-04-01T17:09:31.448Z,4.15
2023-04-01T17:12:50.438Z,5.20
2023-04-01T17:15:45.554Z,6.47
2023-04-01T17:18:40.826Z,9.55
2023-04-01T17:21:48.261Z,5.82
2023-04-01T17:24:36.423Z,4.88
2023-04-01T17:27:32.759Z,5.68
2023-04-01T17:30:25.933Z,8.90
2023-04-01T17:33:21.079Z,9.50
2023-04-01T17:36:09.520Z,11.82
2023-04-01T17:39:16.601Z,14.63
2023-04-01T17:42:05.810Z,13.40
2023-04-01T17:45:02.244Z,15.05
2023-04-01T17:47:38.139Z,15.48
2023-04-01T17:50:19.540Z,10.60
2023-04-01T17:53:05.037Z,10.75
2023-04-01T17:56:01.078Z,20.13
2023-04-01T17:59:06.294Z,15.60
2023-04-01T18:01:59.353Z,16.00
2023-04-01T18:05:16.402Z,17.27
2023-04-01T18:08:13.881Z,11.48
2023-04-01T18:10:46.845Z,14.23
2023-04-01T18:13:33.975Z,16.33
2023-04-01T18:16:19.762Z,16.92
2023-04-01T18:19:17.676Z,15.10
2023-04-01T18:22:07.799Z,13.00
2023-04-01T18:24:47.518Z,12.25
2023-04-01T18:27:48.048Z,10.30
2023-04-01T18:30:33.194Z,8.43
2023-04-01T18:33:36.634Z,8.85
2023-04-01T18:36:34.898Z,7.82
2023-04-01T18:39:32.822Z,8.50
2023-04-01T18:42:27.656Z,27.08
2023-04-01T18:45:30.810Z,18.58
2023-04-01T18:48:37.122Z,5.38
2023-04-01T18:51:34.332Z,10.77
2023-04-01T18:54:11.716Z,17.05
2023-04-01T18:56:43.728Z,24.52
2023-04-01T18:59:43.303Z,17.35
2023-04-01T19:02:33.676Z,12.15
2023-04-01T19:05:12.215Z,7.88
2023-04-01T19:07:52.651Z,4.83
2023-04-01T19:10:26.770Z,5.38
2023-04-01T19:13:15.205Z,4.18
2023-04-01T19:16:17.931Z,3.85
2023-04-01T19:19:11.105Z,4.55
2023-04-01T19:21:55.811Z,3.63
2023-04-01T19:24:42.397Z,2.92
2023-04-01T19:27:21.704Z,2.33
2023-04-01T19:33:25.954Z,7.60
2023-04-01T19:36:35.870Z,10.75
2023-04-01T19:39:50.902Z,7.60
2023-04-01T19:42:56.260Z,4.20
2023-04-01T19:45:43.796Z,5.57
2023-04-01T19:48:16.711Z,5.88
2023-04-01T19:51:07.339Z,4.65
2023-04-01T19:53:55.987Z,3.90
2023-04-01T19:56:31.815Z,3.55
2023-04-01T19:59:31.231Z,5.95
2023-04-01T20:02:32.524Z,4.47
2023-04-01T20:05:17.303Z,4.40
2023-04-01T20:08:11.434Z,5.47
2023-04-01T20:11:08.853Z,7.07
2023-04-01T20:13:57.448Z,9.27
2023-04-01T20:16:51.121Z,12.85
2023-04-01T20:19:43.030Z,20.70
2023-04-01T20:22:44.652Z,17.63
2023-04-01T20:25:16.802Z,13.30
2023-04-01T20:28:00.010Z,11.18
2023-04-01T20:30:55.821Z,8.07
2023-04-01T20:33:44.999Z,3.05
2023-04-01T20:36:34.312Z,1.23
2023-04-01T20:39:35.124Z,1.38
2023-04-01T20:42:35.999Z,1.50
2023-04-01T20:45:51.997Z,1.75
2023-04-01T20:48:31.218Z,1.52
2023-04-01T20:51:29.907Z,1.65
2023-04-01T20:54:30.954Z,1.95
2023-04-01T20:57:26.825Z,5.22
2023-04-01T21:00:05.238Z,1.20
2023-04-01T21:02:44.517Z,2.58
2023-04-01T21:05:36.269Z,2.72
2023-04-01T21:08:26.654Z,3.08
2023-04-01T21:11:31.155Z,4.20
2023-04-01T21:14:38.664Z,7.78
2023-04-01T21:17:38.582Z,11.95
2023-04-01T21:21:01.869Z,9.40
2023-04-01T21:24:09.963Z,5.40
2023-04-01T21:27:04.346Z,4.60
2023-04-01T21:29:37.539Z,4.10
2023-04-01T21:32:31.281Z,3.80
2023-04-01T21:35:48.436Z,4.05
2023-04-01T21:38:45.598Z,6.38
2023-04-01T21:41:53.793Z,6.85
2023-04-01T21:44:38.876Z,11.47
2023-04-01T21:47:39.962Z,14.70
2023-04-01T21:51:03.429Z,8.38
2023-04-01T21:54:22.787Z,10.43
2023-04-01T22:00:20.594Z,10.32
2023-04-01T22:03:06.073Z,8.02
2023-04-01T22:05:44.913Z,10.55
2023-04-01T22:08:51.672Z,8.05
2023-04-01T22:11:49.757Z,5.47
2023-04-01T22:14:20.498Z,7.68
2023-04-01T22:17:13.958Z,10.38
2023-04-01T22:19:54.843Z,6.60
2023-04-01T22:22:40.649Z,1.80
2023-04-01T22:25:23.627Z,1.20
2023-04-01T22:27:58.085Z,1.48
2023-04-01T22:30:38.710Z,1.40
2023-04-01T22:33:27.191Z,2.42
2023-04-01T22:36:06.410Z,2.40
2023-04-01T22:38:45.386Z,5.00
2023-04-01T22:41:36.966Z,4.10
2023-04-01T22:44:04.525Z,2.90
2023-04-01T22:46:44.298Z,2.72
2023-04-01T22:49:22.819Z,2.63
2023-04-01T22:52:22.062Z,2.50
2023-04-01T22:54:58.521Z,3.08
2023-04-01T22:58:15.094Z,1.77
2023-04-01T23:01:00.465Z,1.83
2023-04-01T23:03:31.460Z,1.38
2023-04-01T23:06:02.593Z,1.25
2023-04-01T23:09:00.198Z,1.08
2023-04-01T23:12:08.488Z,0.88
2023-04-01T23:14:48.969Z,1.60
2023-04-01T23:17:59.863Z,1.35
2023-04-01T23:20:39.349Z,1.02
2023-04-01T23:26:08.187Z,1.17
2023-04-01T23:28:50.409Z,0.88
2023-04-01T23:31:37.324Z,1.23
2023-04-01T23:34:13.849Z,1.10
2023-04-01T23:36:49.260Z,1.15
2023-04-01T23:39:41.346Z,1.20
2023-04-01T23:42:38.975Z,1.60
2023-04-01T23:45:17.669Z,2.80
2023-04-01T23:47:49.287Z,3.90
2023-04-01T23:50:23.241Z,6.97
2023-04-01T23:53:32.636Z,10.98
2023-04-01T23:56:01.793Z,9.48
2023-04-01T23:58:49.380Z,7.28
